createdAt,value
2018-10-02T00:00:24.009Z,1011.64
2018-10-02T00:01:23.955Z,1011.63
2018-10-02T00:02:23.961Z,1011.64
2018-10-02T00:03:23.967Z,1011.67
2018-10-02T00:04:24.000Z,1011.63
2018-10-02T00:05:24.017Z,1011.66
2018-10-02T00:06:24.030Z,1011.71
2018-10-02T00:07:24.014Z,1011.68
2018-10-02T00:08:23.998Z,1011.64
2018-10-02T00:09:24.015Z,1011.69
2018-10-02T00:10:24.022Z,1011.72
2018-10-02T00:11:24.076Z,1011.68
2018-10-02T00:12:24.105Z,1011.68
2018-10-02T00:13:24.123Z,1011.66
2018-10-02T00:14:24.446Z,1011.70
2018-10-02T00:15:24.037Z,1011.70
2018-10-02T00:16:24.071Z,1011.70
2018-10-02T00:17:24.076Z,1011.69
2018-10-02T00:18:24.077Z,1011.74
2018-10-02T00:19:24.060Z,1011.75
2018-10-02T00:20:24.066Z,1011.78
2018-10-02T00:21:24.116Z,1011.72
2018-10-02T00:22:24.100Z,1011.77
2018-10-02T00:23:24.089Z,1011.77
2018-10-02T00:24:24.095Z,1011.75
2018-10-02T00:25:24.115Z,1011.73
2018-10-02T00:26:24.098Z,1011.72
2018-10-02T00:27:24.144Z,1011.75
2018-10-02T00:28:24.106Z,1011.76
2018-10-02T00:29:24.149Z,1011.71
2018-10-02T00:30:24.120Z,1011.73
2018-10-02T00:31:24.204Z,1011.74
2018-10-02T00:32:24.285Z,1011.70
2018-10-02T00:33:24.149Z,1011.74
2018-10-02T00:34:24.167Z,1011.67
2018-10-02T00:35:24.152Z,1011.74
2018-10-02T00:36:24.164Z,1011.70
2018-10-02T00:37:24.164Z,1011.72
2018-10-02T00:38:24.227Z,1011.75
2018-10-02T00:39:24.221Z,1011.80
2018-10-02T00:40:24.186Z,1011.78
2018-10-02T00:41:24.190Z,1011.80
2018-10-02T00:42:24.199Z,1011.79
2018-10-02T00:43:24.216Z,1011.77
2018-10-02T00:44:24.218Z,1011.72
2018-10-02T00:45:24.227Z,1011.78
2018-10-02T00:46:24.222Z,1011.76
2018-10-02T00:47:24.220Z,1011.75
2018-10-02T00:48:24.236Z,1011.76
2018-10-02T00:49:24.246Z,1011.75
2018-10-02T00:50:24.283Z,1011.77
2018-10-02T00:51:24.268Z,1011.75
2018-10-02T00:52:24.258Z,1011.82
2018-10-02T00:53:24.260Z,1011.81
2018-10-02T00:54:24.265Z,1011.81
2018-10-02T00:55:24.288Z,1011.81
2018-10-02T00:56:24.299Z,1011.76
2018-10-02T00:57:24.516Z,1011.78
2018-10-02T00:58:24.294Z,1011.81
2018-10-02T00:59:24.304Z,1011.79
2018-10-02T01:00:24.294Z,1011.81
2018-10-02T01:01:24.305Z,1011.80
2018-10-02T01:02:24.343Z,1011.80
2018-10-02T01:03:24.306Z,1011.86
2018-10-02T01:04:24.338Z,1011.85
2018-10-02T01:05:24.318Z,1011.85
2018-10-02T01:06:24.328Z,1011.87
2018-10-02T01:07:24.381Z,1011.86
2018-10-02T01:08:24.340Z,1011.83
2018-10-02T01:09:24.346Z,1011.88
2018-10-02T01:10:24.356Z,1011.83
2018-10-02T01:11:24.412Z,1011.85
2018-10-02T01:12:24.419Z,1011.76
2018-10-02T01:13:24.402Z,1011.80
2018-10-02T01:14:24.390Z,1011.79
2018-10-02T01:15:24.373Z,1011.81
2018-10-02T01:16:24.435Z,1011.77
2018-10-02T01:17:24.413Z,1011.74
2018-10-02T01:18:24.434Z,1011.84
2018-10-02T01:19:24.420Z,1011.78
2018-10-02T01:20:24.407Z,1011.81
2018-10-02T01:21:24.414Z,1011.82
2018-10-02T01:22:24.450Z,1011.83
2018-10-02T01:23:24.425Z,1011.85
2018-10-02T01:24:24.452Z,1011.82
2018-10-02T01:25:24.607Z,1011.86
2018-10-02T01:26:24.439Z,1011.91
2018-10-02T01:27:25.329Z,1011.89
2018-10-02T01:28:24.948Z,1011.86
2018-10-02T01:29:24.607Z,1011.83
2018-10-02T01:30:24.476Z,1011.88
2018-10-02T01:31:24.480Z,1011.82
2018-10-02T01:32:24.487Z,1011.83
2018-10-02T01:33:25.464Z,1011.84
2018-10-02T01:34:24.512Z,1011.83
2018-10-02T01:35:24.488Z,1011.85
2018-10-02T01:36:24.515Z,1011.86
2018-10-02T01:37:24.507Z,1011.82
2018-10-02T01:38:24.521Z,1011.93
2018-10-02T01:39:24.506Z,1011.83
2018-10-02T01:40:24.537Z,1011.91
2018-10-02T01:41:24.517Z,1011.84
2018-10-02T01:42:24.567Z,1011.87
2018-10-02T01:43:24.559Z,1011.88
2018-10-02T01:44:24.540Z,1011.88
2018-10-02T01:45:24.577Z,1011.89
2018-10-02T01:46:24.545Z,1011.87
2018-10-02T01:47:24.611Z,1011.82
2018-10-02T01:48:24.555Z,1011.83
2018-10-02T01:49:24.563Z,1011.81
2018-10-02T01:50:24.563Z,1011.71
2018-10-02T01:51:24.578Z,1011.81
2018-10-02T01:52:24.582Z,1011.80
2018-10-02T01:53:24.606Z,1011.79
2018-10-02T01:54:24.589Z,1011.80
2018-10-02T01:55:24.604Z,1011.78
2018-10-02T01:56:24.605Z,1011.82
2018-10-02T01:57:24.614Z,1011.83
2018-10-02T01:58:24.650Z,1011.79
2018-10-02T01:59:24.655Z,1011.76
2018-10-02T02:00:24.621Z,1011.81
2018-10-02T02:01:24.659Z,1011.84
2018-10-02T02:02:24.644Z,1011.83
2018-10-02T02:03:24.648Z,1011.82
2018-10-02T02:04:24.665Z,1011.83
2018-10-02T02:05:24.655Z,1011.86
2018-10-02T02:06:24.672Z,1011.85
2018-10-02T02:07:24.661Z,1011.80
2018-10-02T02:08:24.701Z,1011.89
2018-10-02T02:09:24.699Z,1011.85
2018-10-02T02:10:24.704Z,1011.89
2018-10-02T02:11:24.710Z,1011.88
2018-10-02T02:12:24.694Z,1011.92
2018-10-02T02:13:24.687Z,1011.91
2018-10-02T02:14:24.690Z,1011.83
2018-10-02T02:15:24.739Z,1011.89
2018-10-02T02:16:24.713Z,1011.89
2018-10-02T02:17:24.719Z,1011.90
2018-10-02T02:18:24.738Z,1011.90
2018-10-02T02:19:24.721Z,1011.88
2018-10-02T02:20:24.771Z,1011.89
2018-10-02T02:21:24.741Z,1011.89
2018-10-02T02:22:24.765Z,1011.94
2018-10-02T02:23:24.744Z,1011.87
2018-10-02T02:24:24.750Z,1011.93
2018-10-02T02:25:24.758Z,1011.87
2018-10-02T02:26:24.823Z,1011.89
2018-10-02T02:27:24.776Z,1011.92
2018-10-02T02:28:24.768Z,1011.98
2018-10-02T02:29:24.832Z,1011.90
2018-10-02T02:30:24.792Z,1011.89
2018-10-02T02:31:24.804Z,1011.90
2018-10-02T02:32:24.799Z,1011.91
2018-10-02T02:33:24.869Z,1011.98
2018-10-02T02:34:24.805Z,1011.91
2018-10-02T02:35:24.817Z,1011.89
2018-10-02T02:36:24.820Z,1011.91
2018-10-02T02:37:24.830Z,1011.90
2018-10-02T02:38:24.823Z,1011.88
2018-10-02T02:39:24.881Z,1011.93
2018-10-02T02:40:24.862Z,1011.93
2018-10-02T02:41:24.837Z,1011.95
2018-10-02T02:42:24.891Z,1011.94
2018-10-02T02:43:24.886Z,1011.91
2018-10-02T02:44:24.873Z,1011.99
2018-10-02T02:45:24.883Z,1011.92
2018-10-02T02:46:24.872Z,1011.94
2018-10-02T02:47:24.910Z,1011.99
2018-10-02T02:48:24.889Z,1012.00
2018-10-02T02:49:24.930Z,1011.96
2018-10-02T02:50:24.900Z,1011.93
2018-10-02T02:51:24.899Z,1012.00
2018-10-02T02:52:24.903Z,1011.92
2018-10-02T02:53:24.904Z,1012.03
2018-10-02T02:54:24.971Z,1011.98
2018-10-02T02:55:24.913Z,1012.01
2018-10-02T02:56:24.924Z,1012.01
2018-10-02T02:57:24.940Z,1012.05
2018-10-02T02:58:24.938Z,1012.02
2018-10-02T02:59:24.931Z,1012.01
2018-10-02T03:00:24.965Z,1012.08
2018-10-02T03:01:24.980Z,1011.98
2018-10-02T03:02:24.956Z,1011.98
2018-10-02T03:03:24.971Z,1011.93
2018-10-02T03:04:24.966Z,1011.99
2018-10-02T03:05:25.017Z,1011.96
2018-10-02T03:06:24.972Z,1011.96
2018-10-02T03:07:25.000Z,1011.93
2018-10-02T03:08:25.003Z,1011.98
2018-10-02T03:09:24.997Z,1011.98
2018-10-02T03:10:25.005Z,1011.96
2018-10-02T03:11:25.008Z,1011.86
2018-10-02T03:12:25.035Z,1011.96
2018-10-02T03:13:25.017Z,1011.93
2018-10-02T03:14:25.025Z,1011.89
2018-10-02T03:15:25.020Z,1011.89
2018-10-02T03:16:25.026Z,1011.95
2018-10-02T03:17:25.053Z,1012.00
2018-10-02T03:18:25.043Z,1011.99
2018-10-02T03:19:25.100Z,1011.93
2018-10-02T03:20:25.055Z,1011.93
2018-10-02T03:21:25.045Z,1011.95
2018-10-02T03:22:25.086Z,1011.97
2018-10-02T03:23:25.061Z,1011.92
2018-10-02T03:24:25.071Z,1011.90
2018-10-02T03:25:25.077Z,1011.94
2018-10-02T03:26:25.125Z,1011.86
2018-10-02T03:27:25.088Z,1011.88
2018-10-02T03:28:25.084Z,1011.90
2018-10-02T03:29:25.116Z,1011.85
2018-10-02T03:30:25.113Z,1011.83
2018-10-02T03:31:25.108Z,1011.84
2018-10-02T03:32:25.116Z,1011.83
2018-10-02T03:33:25.137Z,1011.84
2018-10-02T03:34:25.116Z,1011.84
2018-10-02T03:35:25.156Z,1011.90
2018-10-02T03:36:25.162Z,1011.90
2018-10-02T03:37:25.141Z,1011.97
2018-10-02T03:38:25.144Z,1011.96
2018-10-02T03:39:25.280Z,1011.94
2018-10-02T03:40:25.198Z,1011.92
2018-10-02T03:41:25.178Z,1011.90
2018-10-02T03:42:25.168Z,1011.92
2018-10-02T03:43:25.176Z,1011.95
2018-10-02T03:44:25.198Z,1011.93
2018-10-02T03:45:25.186Z,1011.98
2018-10-02T03:46:25.219Z,1011.95
2018-10-02T03:47:25.259Z,1012.01
2018-10-02T03:48:25.207Z,1011.93
2018-10-02T03:49:25.200Z,1011.91
2018-10-02T03:50:25.208Z,1011.93
2018-10-02T03:51:25.237Z,1011.98
2018-10-02T03:52:25.263Z,1011.97
2018-10-02T03:53:25.239Z,1011.93
2018-10-02T03:54:25.304Z,1011.92
2018-10-02T03:55:25.317Z,1011.89
2018-10-02T03:56:25.227Z,1012.00
2018-10-02T03:57:25.243Z,1011.94
2018-10-02T03:58:25.295Z,1011.94
2018-10-02T03:59:25.242Z,1011.93
2018-10-02T04:00:25.253Z,1011.93
2018-10-02T04:01:25.257Z,1011.88
2018-10-02T04:02:25.305Z,1011.87
2018-10-02T04:03:25.367Z,1011.90
2018-10-02T04:04:25.281Z,1011.87
2018-10-02T04:05:25.308Z,1011.85
2018-10-02T04:06:25.287Z,1011.87
2018-10-02T04:07:25.303Z,1011.91
2018-10-02T04:08:25.301Z,1011.91
2018-10-02T04:09:25.317Z,1011.91
2018-10-02T04:10:25.316Z,1011.95
2018-10-02T04:11:25.469Z,1011.93
2018-10-02T04:12:25.396Z,1011.89
2018-10-02T04:13:25.400Z,1011.87
2018-10-02T04:14:25.331Z,1011.92
2018-10-02T04:15:25.360Z,1011.95
2018-10-02T04:16:25.647Z,1011.93
2018-10-02T04:17:25.338Z,1011.97
2018-10-02T04:18:25.353Z,1011.97
2018-10-02T04:19:25.376Z,1011.96
2018-10-02T04:20:25.382Z,1011.97
2018-10-02T04:21:25.375Z,1011.99
2018-10-02T04:22:25.383Z,1012.01
2018-10-02T04:23:25.400Z,1012.03
2018-10-02T04:24:25.381Z,1012.04
2018-10-02T04:25:25.414Z,1011.99
2018-10-02T04:26:25.386Z,1012.00
2018-10-02T04:27:25.403Z,1012.03
2018-10-02T04:28:25.421Z,1011.97
2018-10-02T04:29:25.442Z,1011.99
2018-10-02T04:30:25.428Z,1012.00
2018-10-02T04:31:25.418Z,1011.98
2018-10-02T04:32:25.459Z,1012.00
2018-10-02T04:33:25.435Z,1011.97
2018-10-02T04:34:25.428Z,1012.00
2018-10-02T04:35:25.456Z,1012.04
2018-10-02T04:36:25.433Z,1012.01
2018-10-02T04:37:25.493Z,1012.05
2018-10-02T04:38:25.454Z,1012.05
2018-10-02T04:39:25.513Z,1012.04
2018-10-02T04:40:25.469Z,1012.09
2018-10-02T04:41:25.488Z,1012.09
2018-10-02T04:42:25.499Z,1012.01
2018-10-02T04:43:25.509Z,1012.06
2018-10-02T04:44:25.506Z,1012.03
2018-10-02T04:45:25.602Z,1012.08
2018-10-02T04:46:25.577Z,1012.13
2018-10-02T04:47:25.509Z,1012.15
2018-10-02T04:48:25.519Z,1012.16
2018-10-02T04:49:25.550Z,1012.16
2018-10-02T04:50:25.552Z,1012.15
2018-10-02T04:51:25.545Z,1012.17
2018-10-02T04:52:25.565Z,1012.20
2018-10-02T04:53:25.531Z,1012.18
2018-10-02T04:54:26.006Z,1012.19
2018-10-02T04:55:25.570Z,1012.15
2018-10-02T04:56:25.551Z,1012.19
2018-10-02T04:57:26.354Z,1012.16
2018-10-02T04:58:25.705Z,1012.18
2018-10-02T04:59:25.710Z,1012.21
2018-10-02T05:00:25.653Z,1012.23
2018-10-02T05:01:25.638Z,1012.16
2018-10-02T05:02:25.965Z,1012.18
2018-10-02T05:03:25.631Z,1012.16
2018-10-02T05:04:25.730Z,1012.15
2018-10-02T05:05:25.668Z,1012.09
2018-10-02T05:06:25.694Z,1012.17
2018-10-02T05:07:25.739Z,1012.15
2018-10-02T05:08:25.693Z,1012.17
2018-10-02T05:09:25.722Z,1012.22
2018-10-02T05:10:25.647Z,1012.23
2018-10-02T05:11:25.627Z,1012.26
2018-10-02T05:12:25.661Z,1012.25
2018-10-02T05:13:25.673Z,1012.26
2018-10-02T05:14:25.634Z,1012.26
2018-10-02T05:15:25.651Z,1012.29
2018-10-02T05:16:25.705Z,1012.35
2018-10-02T05:17:25.667Z,1012.32
2018-10-02T05:18:25.705Z,1012.33
2018-10-02T05:19:25.665Z,1012.32
2018-10-02T05:20:25.664Z,1012.35
2018-10-02T05:21:25.682Z,1012.31
2018-10-02T05:22:25.684Z,1012.32
2018-10-02T05:23:25.701Z,1012.36
2018-10-02T05:24:25.723Z,1012.40
2018-10-02T05:25:25.704Z,1012.36
2018-10-02T05:26:25.695Z,1012.39
2018-10-02T05:27:25.795Z,1012.46
2018-10-02T05:28:25.724Z,1012.43
2018-10-02T05:29:25.766Z,1012.43
2018-10-02T05:30:25.755Z,1012.44
2018-10-02T05:31:25.742Z,1012.41
2018-10-02T05:32:25.733Z,1012.41
2018-10-02T05:33:25.748Z,1012.41
2018-10-02T05:34:26.821Z,1012.36
2018-10-02T05:35:25.830Z,1012.40
2018-10-02T05:36:25.756Z,1012.40
2018-10-02T05:37:25.799Z,1012.33
2018-10-02T05:38:25.769Z,1012.35
2018-10-02T05:39:25.771Z,1012.31
2018-10-02T05:40:25.775Z,1012.25
2018-10-02T05:41:25.799Z,1012.30
2018-10-02T05:42:25.840Z,1012.29
2018-10-02T05:43:25.803Z,1012.34
2018-10-02T05:44:25.801Z,1012.39
2018-10-02T05:45:25.926Z,1012.39
2018-10-02T05:46:25.827Z,1012.42
2018-10-02T05:47:25.845Z,1012.40
2018-10-02T05:48:25.835Z,1012.41
2018-10-02T05:49:25.839Z,1012.42
2018-10-02T05:50:25.826Z,1012.43
2018-10-02T05:51:25.829Z,1012.42
2018-10-02T05:52:25.850Z,1012.44
2018-10-02T05:53:25.884Z,1012.48
2018-10-02T05:54:25.870Z,1012.47
2018-10-02T05:55:25.876Z,1012.46
2018-10-02T05:56:25.877Z,1012.47
2018-10-02T05:57:25.885Z,1012.44
2018-10-02T05:58:25.884Z,1012.46
2018-10-02T05:59:25.883Z,1012.45
2018-10-02T06:00:25.930Z,1012.47
2018-10-02T06:01:25.917Z,1012.53
2018-10-02T06:02:25.901Z,1012.53
2018-10-02T06:03:25.906Z,1012.51
2018-10-02T06:04:25.908Z,1012.54
2018-10-02T06:05:25.906Z,1012.55
2018-10-02T06:06:25.963Z,1012.57
2018-10-02T06:07:25.911Z,1012.63
2018-10-02T06:08:25.974Z,1012.58
2018-10-02T06:09:25.972Z,1012.54
2018-10-02T06:10:25.934Z,1012.54
2018-10-02T06:11:25.938Z,1012.60
2018-10-02T06:12:25.957Z,1012.66
2018-10-02T06:13:26.003Z,1012.68
2018-10-02T06:14:25.982Z,1012.71
2018-10-02T06:15:25.967Z,1012.76
2018-10-02T06:16:25.976Z,1012.72
2018-10-02T06:17:26.010Z,1012.78
2018-10-02T06:18:25.982Z,1012.78
2018-10-02T06:19:26.023Z,1012.82
2018-10-02T06:20:26.004Z,1012.82
2018-10-02T06:21:26.010Z,1012.81
2018-10-02T06:22:26.008Z,1012.84
2018-10-02T06:23:26.018Z,1012.85
2018-10-02T06:24:26.020Z,1012.76
2018-10-02T06:25:26.044Z,1012.81
2018-10-02T06:26:26.030Z,1012.81
2018-10-02T06:27:26.071Z,1012.83
2018-10-02T06:28:26.043Z,1012.78
2018-10-02T06:29:26.049Z,1012.78
2018-10-02T06:30:26.168Z,1012.80
2018-10-02T06:31:26.096Z,1012.75
2018-10-02T06:32:26.066Z,1012.79
2018-10-02T06:33:26.059Z,1012.74
2018-10-02T06:34:26.088Z,1012.77
2018-10-02T06:35:26.083Z,1012.76
2018-10-02T06:36:26.093Z,1012.73
2018-10-02T06:37:26.124Z,1012.75
2018-10-02T06:38:26.257Z,1012.72
2018-10-02T06:39:26.094Z,1012.68
2018-10-02T06:40:26.145Z,1012.69
2018-10-02T06:41:26.134Z,1012.71
2018-10-02T06:42:26.121Z,1012.70
2018-10-02T06:43:26.162Z,1012.73
2018-10-02T06:44:26.289Z,1012.75
2018-10-02T06:45:26.146Z,1012.76
2018-10-02T06:46:26.191Z,1012.74
2018-10-02T06:47:26.148Z,1012.72
2018-10-02T06:48:26.158Z,1012.74
2018-10-02T06:49:26.159Z,1012.73
2018-10-02T06:50:26.173Z,1012.74
2018-10-02T06:51:26.357Z,1012.71
2018-10-02T06:52:26.287Z,1012.72
2018-10-02T06:53:26.176Z,1012.70
2018-10-02T06:54:26.183Z,1012.73
2018-10-02T06:55:26.194Z,1012.71
2018-10-02T06:56:26.226Z,1012.72
2018-10-02T06:57:26.223Z,1012.67
2018-10-02T06:58:26.214Z,1012.67
2018-10-02T06:59:26.241Z,1012.70
2018-10-02T07:00:26.272Z,1012.72
2018-10-02T07:01:26.247Z,1012.70
2018-10-02T07:02:26.247Z,1012.60
2018-10-02T07:03:26.241Z,1012.65
2018-10-02T07:04:26.242Z,1012.57
2018-10-02T07:05:26.278Z,1012.61
2018-10-02T07:06:26.262Z,1012.53
2018-10-02T07:07:26.277Z,1012.59
2018-10-02T07:08:26.339Z,1012.53
2018-10-02T07:09:26.277Z,1012.57
2018-10-02T07:10:26.323Z,1012.60
2018-10-02T07:11:26.305Z,1012.56
2018-10-02T07:12:26.331Z,1012.50
2018-10-02T07:13:26.306Z,1012.51
2018-10-02T07:14:26.328Z,1012.58
2018-10-02T07:15:26.318Z,1012.59
2018-10-02T07:16:26.324Z,1012.55
2018-10-02T07:17:26.449Z,1012.55
2018-10-02T07:18:26.344Z,1012.54
2018-10-02T07:19:26.352Z,1012.54
2018-10-02T07:20:26.413Z,1012.53
2018-10-02T07:21:26.356Z,1012.49
2018-10-02T07:22:26.395Z,1012.42
2018-10-02T07:23:26.379Z,1012.45
2018-10-02T07:24:26.404Z,1012.43
2018-10-02T07:25:26.408Z,1012.43
2018-10-02T07:26:26.432Z,1012.41
2018-10-02T07:27:26.500Z,1012.42
2018-10-02T07:28:26.561Z,1012.34
2018-10-02T07:29:26.411Z,1012.43
2018-10-02T07:30:26.476Z,1012.36
2018-10-02T07:31:26.420Z,1012.40
2018-10-02T07:32:26.443Z,1012.40
2018-10-02T07:33:26.462Z,1012.39
2018-10-02T07:34:26.449Z,1012.44
2018-10-02T07:35:26.478Z,1012.41
2018-10-02T07:36:26.527Z,1012.43
2018-10-02T07:37:26.473Z,1012.41
2018-10-02T07:38:26.541Z,1012.45
2018-10-02T07:39:26.540Z,1012.44
2018-10-02T07:40:26.490Z,1012.41
2018-10-02T07:41:26.559Z,1012.39
2018-10-02T07:42:26.613Z,1012.37
2018-10-02T07:43:26.507Z,1012.38
2018-10-02T07:44:26.586Z,1012.35
2018-10-02T07:45:26.523Z,1012.38
2018-10-02T07:46:26.541Z,1012.41
2018-10-02T07:47:26.613Z,1012.40
2018-10-02T07:48:26.593Z,1012.38
2018-10-02T07:49:26.601Z,1012.40
2018-10-02T07:50:26.611Z,1012.43
2018-10-02T07:51:26.593Z,1012.38
2018-10-02T07:52:26.571Z,1012.42
2018-10-02T07:53:26.585Z,1012.44
2018-10-02T07:54:26.608Z,1012.48
2018-10-02T07:55:26.672Z,1012.38
2018-10-02T07:56:26.664Z,1012.41
2018-10-02T07:57:26.611Z,1012.37
2018-10-02T07:58:26.610Z,1012.39
2018-10-02T07:59:26.680Z,1012.38
2018-10-02T08:00:26.647Z,1012.38
2018-10-02T08:01:26.673Z,1012.35
2018-10-02T08:02:26.637Z,1012.38
2018-10-02T08:03:26.648Z,1012.39
2018-10-02T08:04:26.653Z,1012.39
2018-10-02T08:05:26.720Z,1012.35
2018-10-02T08:06:26.692Z,1012.36
2018-10-02T08:07:26.710Z,1012.37
2018-10-02T08:08:26.688Z,1012.34
2018-10-02T08:09:26.721Z,1012.31
2018-10-02T08:10:26.698Z,1012.35
2018-10-02T08:11:26.718Z,1012.36
2018-10-02T08:12:26.812Z,1012.40
2018-10-02T08:13:26.762Z,1012.37
2018-10-02T08:14:26.763Z,1012.35
2018-10-02T08:15:26.766Z,1012.39
2018-10-02T08:16:26.724Z,1012.37
2018-10-02T08:17:26.783Z,1012.37
2018-10-02T08:18:26.806Z,1012.31
2018-10-02T08:19:26.744Z,1012.29
2018-10-02T08:20:26.797Z,1012.29
2018-10-02T08:21:26.774Z,1012.29
2018-10-02T08:22:26.779Z,1012.31
2018-10-02T08:23:26.827Z,1012.24
2018-10-02T08:24:26.799Z,1012.24
2018-10-02T08:25:26.823Z,1012.17
2018-10-02T08:26:26.818Z,1012.19
2018-10-02T08:27:26.826Z,1012.20
2018-10-02T08:28:26.823Z,1012.18
2018-10-02T08:29:26.953Z,1012.15
2018-10-02T08:30:27.028Z,1012.14
2018-10-02T08:31:26.859Z,1012.13
2018-10-02T08:32:26.873Z,1012.13
2018-10-02T08:33:26.887Z,1012.11
2018-10-02T08:34:26.876Z,1012.12
2018-10-02T08:35:26.943Z,1012.08
2018-10-02T08:36:27.001Z,1012.09
2018-10-02T08:37:26.888Z,1012.05
2018-10-02T08:38:26.921Z,1012.03
2018-10-02T08:39:26.896Z,1012.00
2018-10-02T08:40:26.917Z,1012.00
2018-10-02T08:41:26.916Z,1011.97
2018-10-02T08:42:26.952Z,1011.95
2018-10-02T08:43:27.015Z,1011.96
2018-10-02T08:44:27.000Z,1011.90
2018-10-02T08:45:26.941Z,1011.89
2018-10-02T08:46:26.960Z,1011.92
2018-10-02T08:47:27.024Z,1011.91
2018-10-02T08:48:26.975Z,1011.92
2018-10-02T08:49:26.984Z,1011.92
2018-10-02T08:50:27.016Z,1011.86
2018-10-02T08:51:27.000Z,1011.86
2018-10-02T08:52:27.029Z,1011.86
2018-10-02T08:53:27.026Z,1011.77
2018-10-02T08:54:27.184Z,1011.78
2018-10-02T08:55:27.045Z,1011.77
2018-10-02T08:56:27.097Z,1011.68
2018-10-02T08:57:27.073Z,1011.67
2018-10-02T08:58:27.081Z,1011.68
2018-10-02T08:59:27.065Z,1011.64
2018-10-02T09:00:27.120Z,1011.69
2018-10-02T09:01:27.077Z,1011.66
2018-10-02T09:02:27.091Z,1011.66
2018-10-02T09:03:27.116Z,1011.66
2018-10-02T09:04:27.110Z,1011.66
2018-10-02T09:05:27.102Z,1011.66
2018-10-02T09:06:27.112Z,1011.70
2018-10-02T09:07:27.159Z,1011.69
2018-10-02T09:08:27.144Z,1011.68
2018-10-02T09:09:27.131Z,1011.72
2018-10-02T09:10:27.268Z,1011.69
2018-10-02T09:11:27.177Z,1011.73
2018-10-02T09:12:27.220Z,1011.73
2018-10-02T09:13:27.201Z,1011.75
2018-10-02T09:14:27.201Z,1011.77
2018-10-02T09:15:27.296Z,1011.75
2018-10-02T09:16:27.321Z,1011.75
2018-10-02T09:17:27.210Z,1011.69
2018-10-02T09:18:27.406Z,1011.67
2018-10-02T09:19:27.254Z,1011.66
2018-10-02T09:20:27.331Z,1011.65
2018-10-02T09:21:27.247Z,1011.66
2018-10-02T09:22:27.262Z,1011.65
2018-10-02T09:23:27.272Z,1011.57
2018-10-02T09:24:27.290Z,1011.61
2018-10-02T09:25:27.269Z,1011.60
2018-10-02T09:26:27.303Z,1011.60
2018-10-02T09:27:27.331Z,1011.57
2018-10-02T09:28:27.333Z,1011.61
2018-10-02T09:29:27.359Z,1011.61
2018-10-02T09:30:27.442Z,1011.63
2018-10-02T09:31:27.352Z,1011.55
2018-10-02T09:32:27.344Z,1011.57
2018-10-02T09:33:27.341Z,1011.45
2018-10-02T09:34:27.352Z,1011.49
2018-10-02T09:35:27.393Z,1011.52
2018-10-02T09:36:27.378Z,1011.55
2018-10-02T09:37:27.475Z,1011.52
2018-10-02T09:38:27.387Z,1011.52
2018-10-02T09:39:28.361Z,1011.51
2018-10-02T09:40:27.376Z,1011.50
2018-10-02T09:41:27.400Z,1011.47
2018-10-02T09:42:27.493Z,1011.42
2018-10-02T09:43:27.495Z,1011.46
2018-10-02T09:44:27.451Z,1011.49
2018-10-02T09:45:27.474Z,1011.44
2018-10-02T09:46:27.434Z,1011.39
2018-10-02T09:47:27.461Z,1011.43
2018-10-02T09:48:27.529Z,1011.46
2018-10-02T09:49:27.532Z,1011.39
2018-10-02T09:50:27.490Z,1011.36
2018-10-02T09:51:27.495Z,1011.32
2018-10-02T09:52:27.527Z,1011.26
2018-10-02T09:53:27.514Z,1011.32
2018-10-02T09:54:28.073Z,1011.28
2018-10-02T09:55:27.530Z,1011.27
2018-10-02T09:56:27.599Z,1011.26
2018-10-02T09:57:27.531Z,1011.27
2018-10-02T09:58:27.714Z,1011.23
2018-10-02T09:59:27.553Z,1011.17
2018-10-02T10:00:27.620Z,1011.17
2018-10-02T10:01:27.579Z,1011.23
2018-10-02T10:02:27.655Z,1011.17
2018-10-02T10:03:27.605Z,1011.15
2018-10-02T10:04:27.689Z,1011.14
2018-10-02T10:05:27.618Z,1011.14
2018-10-02T10:06:27.645Z,1011.16
2018-10-02T10:07:27.635Z,1011.11
2018-10-02T10:08:27.663Z,1011.11
2018-10-02T10:09:27.647Z,1011.11
2018-10-02T10:10:27.668Z,1011.10
2018-10-02T10:11:27.726Z,1011.01
2018-10-02T10:12:27.731Z,1011.07
2018-10-02T10:13:27.702Z,1011.04
2018-10-02T10:14:27.703Z,1011.05
2018-10-02T10:15:27.708Z,1011.04
2018-10-02T10:16:27.754Z,1011.04
2018-10-02T10:17:27.816Z,1010.99
2018-10-02T10:18:27.770Z,1010.98
2018-10-02T10:19:27.789Z,1011.00
2018-10-02T10:20:27.763Z,1010.96
2018-10-02T10:21:27.905Z,1010.95
2018-10-02T10:22:27.782Z,1010.88
2018-10-02T10:23:27.818Z,1010.96
2018-10-02T10:24:27.791Z,1010.88
2018-10-02T10:25:27.838Z,1010.89
2018-10-02T10:26:28.052Z,1010.93
2018-10-02T10:27:27.792Z,1010.86
2018-10-02T10:28:27.823Z,1010.87
2018-10-02T10:29:27.959Z,1010.89
2018-10-02T10:30:27.945Z,1010.94
2018-10-02T10:31:27.833Z,1010.90
2018-10-02T10:32:27.838Z,1010.88
2018-10-02T10:33:27.966Z,1010.94
2018-10-02T10:34:27.900Z,1010.90
2018-10-02T10:35:27.861Z,1010.90
2018-10-02T10:36:27.908Z,1010.92
2018-10-02T10:37:27.887Z,1010.90
2018-10-02T10:38:27.886Z,1010.92
2018-10-02T10:39:27.907Z,1010.88
2018-10-02T10:40:27.957Z,1010.84
2018-10-02T10:41:27.976Z,1010.82
2018-10-02T10:42:27.954Z,1010.76
2018-10-02T10:43:28.499Z,1010.76
2018-10-02T10:44:28.025Z,1010.67
2018-10-02T10:45:27.986Z,1010.68
2018-10-02T10:46:27.991Z,1010.66
2018-10-02T10:47:28.069Z,1010.66
2018-10-02T10:48:27.998Z,1010.69
2018-10-02T10:49:28.013Z,1010.68
2018-10-02T10:50:28.009Z,1010.61
2018-10-02T10:51:28.027Z,1010.57
2018-10-02T10:52:28.404Z,1010.62
2018-10-02T10:53:28.037Z,1010.68
2018-10-02T10:54:28.066Z,1010.62
2018-10-02T10:55:28.037Z,1010.68
2018-10-02T10:56:28.133Z,1010.58
2018-10-02T10:57:28.053Z,1010.62
2018-10-02T10:58:28.155Z,1010.63
2018-10-02T10:59:28.089Z,1010.59
2018-10-02T11:00:28.089Z,1010.61
2018-10-02T11:01:28.100Z,1010.59
2018-10-02T11:02:28.088Z,1010.57
2018-10-02T11:03:28.099Z,1010.57
2018-10-02T11:04:28.175Z,1010.56
2018-10-02T11:05:28.132Z,1010.44
2018-10-02T11:06:28.194Z,1010.52
2018-10-02T11:07:28.140Z,1010.39
2018-10-02T11:08:28.138Z,1010.42
2018-10-02T11:09:28.232Z,1010.37
2018-10-02T11:10:28.151Z,1010.39
2018-10-02T11:11:28.164Z,1010.40
2018-10-02T11:12:28.204Z,1010.43
2018-10-02T11:13:28.466Z,1010.47
2018-10-02T11:14:28.180Z,1010.44
2018-10-02T11:15:28.274Z,1010.49
2018-10-02T11:16:28.247Z,1010.41
2018-10-02T11:17:28.246Z,1010.41
2018-10-02T11:18:28.257Z,1010.41
2018-10-02T11:19:28.991Z,1010.43
2018-10-02T11:20:28.266Z,1010.40
2018-10-02T11:21:28.281Z,1010.39
2018-10-02T11:22:28.255Z,1010.37
2018-10-02T11:23:28.293Z,1010.34
2018-10-02T11:24:28.355Z,1010.39
2018-10-02T11:25:28.392Z,1010.35
2018-10-02T11:26:28.312Z,1010.40
2018-10-02T11:27:28.302Z,1010.33
2018-10-02T11:28:28.316Z,1010.27
2018-10-02T11:29:28.339Z,1010.37
2018-10-02T11:30:28.326Z,1010.37
2018-10-02T11:31:28.393Z,1010.31
2018-10-02T11:32:28.406Z,1010.31
2018-10-02T11:33:29.095Z,1010.30
2018-10-02T11:34:28.364Z,1010.25
2018-10-02T11:35:28.471Z,1010.27
2018-10-02T11:36:28.376Z,1010.23
2018-10-02T11:37:28.415Z,1010.24
2018-10-02T11:38:28.411Z,1010.22
2018-10-02T11:39:28.496Z,1010.22
2018-10-02T11:40:28.409Z,1010.14
2018-10-02T11:41:28.408Z,1010.15
2018-10-02T11:42:28.483Z,1010.16
2018-10-02T11:43:28.624Z,1010.10
2018-10-02T11:44:28.478Z,1010.06
2018-10-02T11:45:28.499Z,1010.04
2018-10-02T11:46:28.465Z,1010.02
2018-10-02T11:47:28.524Z,1010.02
2018-10-02T11:48:28.501Z,1009.99
2018-10-02T11:49:28.495Z,1009.91
2018-10-02T11:50:28.504Z,1009.86
2018-10-02T11:51:28.500Z,1009.85
2018-10-02T11:52:28.535Z,1009.79
2018-10-02T11:53:28.551Z,1009.81
2018-10-02T11:54:28.519Z,1009.79
2018-10-02T11:55:28.594Z,1009.75
2018-10-02T11:56:28.533Z,1009.72
2018-10-02T11:57:28.602Z,1009.65
2018-10-02T11:58:28.551Z,1009.66
2018-10-02T11:59:28.591Z,1009.52
2018-10-02T12:00:28.658Z,1009.59
2018-10-02T12:01:28.668Z,1009.53
2018-10-02T12:02:28.737Z,1009.39
2018-10-02T12:03:28.620Z,1009.40
2018-10-02T12:04:28.641Z,1009.41
2018-10-02T12:05:28.680Z,1009.38